Time;durP1;ratioP1;P1;durP2;ratioP2;P2;SDS_P1;SDS_P2;PMS_P1;PMS_P2;Temp;Humidity;BMP_temperature;BMP_pressure;BME280_temperature;BME280_humidity;BME280_pressure;Samples;Min_cycle;Max_cycle;Signal;HPM_P1;HPM_P2
2022/03/18 00:02:26;;;;;;;21.85;16.25;;;;;;;-1.36;100.00;94408.31;4989801;28;20139;-85
2022/03/18 00:05:01;;;;;;;21.20;16.40;;;;;;;-1.39;100.00;94400.19;4987963;28;20062;-85
2022/03/18 00:07:32;;;;;;;21.52;16.05;;;;;;;-1.33;100.00;94427.47;4987477;28;20057;-84
2022/03/18 00:10:09;;;;;;;20.52;15.55;;;;;;;-0.81;100.00;94473.47;4982369;28;20057;-85
2022/03/18 00:12:39;;;;;;;20.27;15.80;;;;;;;-0.73;100.00;94469.59;4989388;28;20046;-84
2022/03/18 00:15:11;;;;;;;21.20;14.73;;;;;;;-1.30;100.00;94381.09;4990014;28;20809;-84
2022/03/18 00:17:41;;;;;;;17.20;13.20;;;;;;;-0.69;100.00;94481.06;4990449;28;20054;-83
2022/03/18 00:20:10;;;;;;;18.55;13.07;;;;;;;-1.28;100.00;94401.94;4988900;28;20544;-83
2022/03/18 00:22:39;;;;;;;17.75;12.50;;;;;;;-1.03;100.00;94411.09;4990584;28;20069;-82
2022/03/18 00:25:08;;;;;;;14.52;11.93;;;;;;;-0.84;100.00;94458.53;4990261;28;20056;-82
2022/03/18 00:27:36;;;;;;;14.95;11.13;;;;;;;-0.93;100.00;94460.91;4990261;28;20042;-82
2022/03/18 00:30:04;;;;;;;14.38;10.70;;;;;;;-0.72;100.00;94491.38;4990102;28;20520;-82
2022/03/18 00:32:32;;;;;;;14.73;10.73;;;;;;;-0.76;100.00;94483.22;4990542;28;20096;-82
2022/03/18 00:34:59;;;;;;;11.80;9.38;;;;;;;-1.55;100.00;94398.72;4990855;28;20407;-82
2022/03/18 00:37:27;;;;;;;12.13;9.48;;;;;;;-1.57;100.00;94389.66;4990321;28;20052;-83
2022/03/18 00:39:56;;;;;;;12.52;9.98;;;;;;;-1.07;100.00;94477.78;4990501;28;20061;-83
2022/03/18 00:42:23;;;;;;;14.23;9.80;;;;;;;-1.36;100.00;94446.13;4990310;28;20164;-83
2022/03/18 00:44:50;;;;;;;11.70;9.13;;;;;;;-1.16;100.00;94496.88;4990036;28;20058;-83
2022/03/18 00:52:46;;;;;;;12.35;9.82;;;;;;;-1.47;100.00;94433.47;4990091;28;20065;-83
2022/03/18 00:55:15;;;;;;;15.23;10.85;;;;;;;-0.98;100.00;94494.81;4990457;28;20061;-83
2022/03/18 00:57:43;;;;;;;11.57;9.05;;;;;;;-1.19;100.00;94481.16;4989999;28;20050;-83
2022/03/18 01:00:12;;;;;;;14.68;10.80;;;;;;;-1.10;100.00;94505.75;4990228;28;20054;-84
2022/03/18 01:02:39;;;;;;;17.58;12.18;;;;;;;-1.23;100.00;94505.78;4993643;28;20061;-83
2022/03/18 01:05:13;;;;;;;15.38;10.70;;;;;;;-1.44;100.00;94475.31;4994095;28;20089;-83
2022/03/18 01:07:53;;;;;;;14.98;11.82;;;;;;;-1.90;100.00;94417.81;4993922;28;20073;-87
2022/03/18 01:10:39;;;;;;;14.73;11.07;;;;;;;-1.68;100.00;94476.03;4993524;28;20081;-87
2022/03/18 01:13:18;;;;;;;14.05;10.95;;;;;;;-2.21;100.00;94401.44;4993151;28;20177;-85
2022/03/18 01:15:56;;;;;;;13.68;11.15;;;;;;;-2.15;100.00;94419.47;4993540;28;20058;-85
2022/03/18 01:18:30;;;;;;;14.43;10.65;;;;;;;-2.17;100.00;94410.41;4993420;28;20043;-84
2022/03/18 01:21:10;;;;;;;13.52;10.75;;;;;;;-2.12;100.00;94425.22;4966507;28;21230;-84
2022/03/18 01:23:39;;;;;;;15.32;12.10;;;;;;;-2.11;100.00;94431.84;4973887;28;20324;-84
2022/03/18 01:26:11;;;;;;;14.10;11.75;;;;;;;-1.73;100.00;94496.50;4974355;28;20725;-84
2022/03/18 01:28:40;;;;;;;16.42;12.55;;;;;;;-1.75;100.00;94501.63;4973494;28;20293;-84
2022/03/18 01:31:09;;;;;;;17.52;12.93;;;;;;;-2.39;100.00;94421.88;4973831;28;20061;-84
2022/03/18 01:33:40;;;;;;;18.00;13.52;;;;;;;-1.98;100.00;94483.03;4973809;28;20074;-84
2022/03/18 01:36:11;;;;;;;17.75;13.80;;;;;;;-2.31;100.00;94439.81;4973474;28;20129;-83
2022/03/18 01:38:42;;;;;;;18.35;14.55;;;;;;;-2.49;100.00;94421.69;4973741;28;20057;-84
2022/03/18 01:41:27;;;;;;;19.02;13.77;;;;;;;-1.91;100.00;94499.34;4973574;28;20062;-86
2022/03/18 01:44:03;;;;;;;;;;;;;;;-1.90;100.00;94511.00;4973793;28;20472;-85
2022/03/18 01:46:37;;;;;;;22.40;15.80;;;;;;;-2.52;100.00;94409.31;4973611;28;20456;-84
2022/03/18 01:49:06;;;;;;;21.33;15.85;;;;;;;-1.99;100.00;94498.22;4973107;28;20058;-84
2022/03/18 01:51:43;;;;;;;25.10;18.48;;;;;;;-2.47;100.00;94424.09;4972812;28;20054;-84
2022/03/18 01:57:07;;;;;;;17.88;13.50;;;;;;;-2.49;100.00;94418.34;4973620;28;20419;-84
2022/03/18 01:59:42;;;;;;;19.42;15.05;;;;;;;-2.36;100.00;94448.56;4973317;28;20440;-83
2022/03/18 02:02:15;;;;;;;39.37;22.93;;;;;;;-2.56;100.00;94410.41;4973196;28;20094;-84
2022/03/18 02:04:48;;;;;;;17.90;13.30;;;;;;;-2.37;100.00;94457.03;4973360;28;20133;-84
2022/03/18 02:07:23;;;;;;;20.50;14.98;;;;;;;-1.85;100.00;94517.47;4973342;28;20047;-84
2022/03/18 02:12:33;;;;;;;20.17;14.77;;;;;;;-1.96;100.00;94495.50;4992374;23;20062;-84
2022/03/18 02:15:09;;;;;;;18.20;12.90;;;;;;;-1.95;100.00;94495.41;4992530;28;20547;-85
2022/03/18 02:17:46;;;;;;;22.20;14.75;;;;;;;-2.36;100.00;94444.31;4992427;28;20511;-85
2022/03/18 02:20:22;;;;;;;17.95;13.60;;;;;;;-1.88;100.00;94499.16;4992203;28;20054;-85
2022/03/18 02:23:05;;;;;;;19.27;14.20;;;;;;;-2.17;100.00;94445.66;4992005;28;20409;-85
2022/03/18 02:25:40;;;;;;;20.77;15.35;;;;;;;-2.25;100.00;94432.75;4991938;28;20053;-85
2022/03/18 02:28:19;;;;;;;21.13;15.35;;;;;;;-2.22;100.00;94440.91;4991625;28;20046;-85
2022/03/18 02:30:58;;;;;;;22.13;15.10;;;;;;;-2.22;100.00;94471.13;4992042;28;20162;-85
2022/03/18 02:33:37;;;;;;;22.05;14.88;;;;;;;-2.34;100.00;94461.84;4992051;28;20066;-86
2022/03/18 02:36:12;;;;;;;22.98;16.33;;;;;;;-2.45;100.00;94450.75;4991717;28;20054;-86
2022/03/18 02:39:01;;;;;;;23.52;15.82;;;;;;;-1.85;100.00;94543.44;4991856;28;20129;-88
2022/03/18 02:44:49;;;;;;;26.33;17.52;;;;;;;-2.41;100.00;94484.06;4991877;28;20431;-89
2022/03/18 02:47:30;;;;;;;26.83;19.63;;;;;;;-2.38;100.00;94483.06;5007368;28;20482;-88
2022/03/18 02:50:08;;;;;;;28.33;19.08;;;;;;;-2.39;100.00;94466.38;5017269;28;20050;-86
2022/03/18 02:52:47;;;;;;;23.02;16.50;;;;;;;-2.10;100.00;94529.13;5011034;28;20053;-88
2022/03/18 02:55:30;;;;;;;24.65;16.83;;;;;;;-2.09;100.00;94535.78;5011038;28;20124;-87
2022/03/18 02:58:08;;;;;;;23.92;17.20;;;;;;;-2.44;100.00;94477.53;5011127;28;20447;-89
2022/03/18 03:00:48;;;;;;;24.02;16.90;;;;;;;-2.66;100.00;94426.97;5010804;28;20116;-88
2022/03/18 03:03:32;;;;;;;22.10;15.68;;;;;;;-2.35;100.00;94477.84;5010965;28;20434;-87
2022/03/18 03:08:53;;;;;;;24.95;15.93;;;;;;;-1.90;100.00;94556.34;5010917;28;20099;-84
2022/03/18 03:11:32;;;;;;;21.58;15.07;;;;;;;-2.33;100.00;94493.66;5010664;28;20061;-84
2022/03/18 03:14:14;;;;;;;20.20;13.75;;;;;;;-2.23;100.00;94519.06;5010904;28;20454;-85
2022/03/18 03:16:54;;;;;;;20.50;14.73;;;;;;;-2.32;100.00;94503.63;5010862;28;20211;-85
2022/03/18 03:19:31;;;;;;;19.30;14.45;;;;;;;-1.94;100.00;94562.47;5010356;28;20042;-84
2022/03/18 03:22:10;;;;;;;19.95;14.32;;;;;;;-1.93;100.00;94565.81;5010384;28;20056;-85
2022/03/18 03:24:48;;;;;;;17.60;13.82;;;;;;;-2.44;100.00;94491.84;5006680;28;20054;-86
2022/03/18 03:27:35;;;;;;;21.27;16.08;;;;;;;-2.27;100.00;94508.34;5009155;28;20062;-85
2022/03/18 03:30:14;;;;;;;19.08;14.38;;;;;;;-1.96;100.00;94553.41;5010314;28;20054;-89
2022/03/18 03:32:55;;;;;;;20.98;14.55;;;;;;;-1.98;100.00;94553.53;5010409;28;20060;-88
2022/03/18 03:35:37;;;;;;;19.58;14.07;;;;;;;-1.85;100.00;94570.34;5010161;28;20046;-88
2022/03/18 03:38:16;;;;;;;21.38;14.85;;;;;;;-1.76;100.00;94580.63;5010184;28;20050;-88
2022/03/18 03:40:57;;;;;;;19.13;13.38;;;;;;;-1.95;100.00;94573.47;5010175;28;20509;-88
2022/03/18 03:43:41;;;;;;;17.42;12.73;;;;;;;-2.15;100.00;94552.91;5010261;28;20061;-86
2022/03/18 03:46:18;;;;;;;17.38;13.10;;;;;;;-2.61;100.00;94485.34;5009873;28;20073;-88
2022/03/18 03:48:56;;;;;;;18.25;14.00;;;;;;;-3.22;100.00;94414.50;5010067;28;20053;-88
2022/03/18 03:51:35;;;;;;;17.38;14.15;;;;;;;-2.64;100.00;94514.03;5009953;28;20066;-88
2022/03/18 03:54:13;;;;;;;19.38;14.57;;;;;;;-2.70;100.00;94524.47;5009934;28;20473;-88
2022/03/18 04:00:10;;;;;;;19.60;15.45;;;;;;;-2.83;100.00;94517.69;5030900;23;20064;-84
2022/03/18 04:02:37;;;;;;;20.13;15.33;;;;;;;-2.25;100.00;94603.91;4991837;28;20049;-86
2022/03/18 04:05:07;;;;;;;21.67;16.67;;;;;;;-2.33;100.00;94604.38;4991707;28;20292;-85
2022/03/18 04:07:34;;;;;;;19.38;14.13;;;;;;;-2.72;100.00;94558.97;4991585;28;20046;-85
2022/03/18 04:10:01;;;;;;;20.83;16.75;;;;;;;-2.39;100.00;94608.13;4991402;28;20042;-83
2022/03/18 04:12:34;;;;;;;21.02;16.65;;;;;;;-2.38;100.00;94617.28;4991405;28;20047;-84
2022/03/18 04:15:00;;;;;;;21.52;16.75;;;;;;;-2.43;100.00;94611.72;4991388;28;20054;-85
2022/03/18 04:17:37;;;;;;;23.45;18.63;;;;;;;-2.44;100.00;94618.44;4991400;28;20050;-90
2022/03/18 04:20:05;;;;;;;23.35;17.63;;;;;;;-2.45;100.00;94619.34;4991716;28;20051;-85
2022/03/18 04:22:32;;;;;;;25.05;17.38;;;;;;;-2.37;100.00;94625.63;4991261;28;20050;-86
2022/03/18 04:24:59;;;;;;;23.30;17.73;;;;;;;-2.40;100.00;94621.59;4991165;28;20116;-85
2022/03/18 04:27:26;;;;;;;22.80;16.83;;;;;;;-2.50;100.00;94616.31;4991350;28;20415;-86
2022/03/18 04:29:53;;;;;;;22.27;16.23;;;;;;;-2.38;100.00;94624.81;4991419;28;20153;-86
2022/03/18 04:32:20;;;;;;;21.88;16.20;;;;;;;-2.63;100.00;94588.59;4991149;28;20054;-86
2022/03/18 04:34:50;;;;;;;18.40;14.52;;;;;;;-2.48;100.00;94618.75;4991268;28;20049;-86
2022/03/18 04:37:22;;;;;;;18.30;14.50;;;;;;;-2.61;100.00;94596.03;4994163;28;21268;-87
2022/03/18 04:39:50;;;;;;;19.00;13.77;;;;;;;-2.35;100.00;94629.69;4995350;28;20050;-85
2022/03/18 04:42:17;;;;;;;17.95;13.85;;;;;;;-2.43;100.00;94626.81;4995140;28;20046;-84
2022/03/18 04:44:44;;;;;;;20.13;14.38;;;;;;;-2.57;100.00;94600.00;4995200;28;20046;-85
2022/03/18 04:47:11;;;;;;;18.23;13.52;;;;;;;-2.37;100.00;94644.03;4995099;28;20093;-87
2022/03/18 04:49:44;;;;;;;20.23;15.38;;;;;;;-2.41;100.00;94642.63;4995181;28;20046;-90
2022/03/18 04:52:21;;;;;;;18.77;15.48;;;;;;;-2.38;100.00;94655.03;4995046;28;20093;-87
2022/03/18 04:54:47;;;;;;;20.42;14.60;;;;;;;-2.36;100.00;94647.38;4997506;28;20061;-86
2022/03/18 04:57:18;;;;;;;17.77;13.73;;;;;;;-2.31;100.00;94647.91;4995063;28;20042;-85
2022/03/18 04:59:48;;;;;;;17.55;13.48;;;;;;;-2.28;100.00;94661.09;4994913;28;20418;-85
2022/03/18 05:02:16;;;;;;;17.02;13.10;;;;;;;-2.22;100.00;94672.50;4994679;28;20062;-85
2022/03/18 05:04:44;;;;;;;19.75;12.77;;;;;;;-2.17;100.00;94677.25;4994785;28;20561;-87
2022/03/18 05:07:13;;;;;;;18.83;12.70;;;;;;;-2.13;100.00;94677.88;4994918;28;20058;-86
2022/03/18 05:09:41;;;;;;;20.00;12.68;;;;;;;-2.18;100.00;94673.91;4994857;28;21047;-85
2022/03/18 05:12:10;;;;;;;20.23;12.77;;;;;;;-2.29;100.00;94659.50;4994783;28;20420;-88
2022/03/18 05:14:36;;;;;;;22.67;13.90;;;;;;;-2.11;100.00;94683.63;4994898;28;20799;-86
2022/03/18 05:17:04;;;;;;;26.17;15.13;;;;;;;-2.27;100.00;94666.94;4994543;28;20142;-86
2022/03/18 05:19:31;;;;;;;24.35;14.35;;;;;;;-2.09;100.00;94687.66;4994431;28;20141;-89
2022/03/18 05:21:58;;;;;;;27.60;14.77;;;;;;;-2.21;100.00;94681.69;4994412;28;20050;-88
2022/03/18 05:24:29;;;;;;;25.80;15.40;;;;;;;-2.15;100.00;94686.34;4994411;28;20054;-85
2022/03/18 05:26:57;;;;;;;25.38;14.88;;;;;;;-2.15;100.00;94685.50;4994708;28;20061;-87
2022/03/18 05:29:25;;;;;;;28.23;16.33;;;;;;;-2.16;100.00;94672.09;4994970;28;20054;-86
2022/03/18 05:32:02;;;;;;;24.10;14.25;;;;;;;-2.04;100.00;94669.75;4994897;28;20419;-91
2022/03/18 05:34:29;;;;;;;28.23;16.17;;;;;;;-1.86;100.00;94695.47;4994300;28;20495;-84
2022/03/18 05:37:06;;;;;;;;;;;;;;;;;;;;;
2022/03/18 05:39:34;;;;;;;20.05;13.45;;;;;;;-1.73;100.00;94689.69;4992458;28;20065;-87
2022/03/18 05:42:03;;;;;;;18.92;12.05;;;;;;;-1.66;100.00;94709.31;4994068;28;20054;-88
2022/03/18 05:44:30;;;;;;;18.45;12.50;;;;;;;-1.49;100.00;94718.34;4994413;28;20438;-86
2022/03/18 05:46:57;;;;;;;18.35;12.43;;;;;;;-1.57;100.00;94697.06;4993712;28;20050;-87
2022/03/18 05:49:26;;;;;;;16.02;11.48;;;;;;;-1.32;100.00;94723.19;4994070;28;20091;-86
2022/03/18 05:51:53;;;;;;;18.13;12.20;;;;;;;-1.15;100.00;94722.91;4993977;28;20042;-86
2022/03/18 05:54:19;;;;;;;17.45;12.10;;;;;;;-0.97;100.00;94731.00;4993752;28;20050;-90
2022/03/18 05:56:52;;;;;;;17.60;12.02;;;;;;;-0.85;100.00;94726.03;4993827;28;20050;-85
2022/03/18 05:59:22;;;;;;;16.40;11.50;;;;;;;-0.73;100.00;94727.78;4994089;28;20060;-89
2022/03/18 06:01:49;;;;;;;16.90;11.73;;;;;;;-0.59;100.00;94728.56;4993979;28;20553;-85
2022/03/18 06:04:17;;;;;;;19.38;10.80;;;;;;;-0.49;100.00;94742.19;4993736;28;20054;-86
2022/03/18 06:06:47;;;;;;;20.25;12.30;;;;;;;-0.30;100.00;94743.44;4993645;28;20593;-85
2022/03/18 06:12:02;;;;;;;17.83;12.60;;;;;;;0.00;100.00;94737.22;4993525;28;20128;-85
2022/03/18 06:14:32;;;;;;;15.38;10.63;;;;;;;0.16;100.00;94757.16;4993306;28;20280;-85
2022/03/18 06:17:07;;;;;;;16.30;10.77;;;;;;;0.24;100.00;94759.16;4993640;28;20054;-93
2022/03/18 06:19:36;;;;;;;13.10;8.90;;;;;;;0.42;99.06;94771.41;4993081;28;20137;-86
2022/03/18 06:22:12;;;;;;;14.20;9.63;;;;;;;0.32;99.24;94778.84;4993396;28;20054;-91
2022/03/18 06:24:42;;;;;;;;;;;;;;;0.16;98.17;94779.06;4993959;28;20050;-85
2022/03/18 06:27:10;;;;;;;15.60;10.45;;;;;;;-0.11;99.73;94780.88;4991963;28;19932;-92
2022/03/18 06:29:43;;;;;;;16.63;11.90;;;;;;;-0.09;100.00;94783.31;4993279;28;20046;-87
2022/03/18 06:32:12;;;;;;;14.10;10.05;;;;;;;-0.28;100.00;94760.09;4993220;28;20077;-87
2022/03/18 06:34:46;;;;;;;13.77;10.45;;;;;;;-0.23;100.00;94787.56;4993632;28;20061;-88
2022/03/18 06:37:15;;;;;;;12.13;8.98;;;;;;;-0.67;100.00;94756.81;4993218;28;20513;-89
2022/03/18 06:39:42;;;;;;;15.02;11.15;;;;;;;-0.20;100.00;94786.56;4993233;28;20446;-87
2022/03/18 06:42:12;;;;;;;14.93;10.13;;;;;;;-0.40;100.00;94788.72;4993110;28;20058;-89
2022/03/18 06:44:40;;;;;;;12.00;8.77;;;;;;;-0.76;100.00;94772.56;4993257;28;20061;-87
2022/03/18 06:47:10;;;;;;;18.25;11.98;;;;;;;-0.76;100.00;94780.13;4993454;28;20050;-88
2022/03/18 06:49:38;;;;;;;14.50;9.50;;;;;;;-0.90;100.00;94801.22;4993144;28;20414;-89
2022/03/18 06:52:06;;;;;;;12.57;9.20;;;;;;;-0.97;100.00;94798.31;4993136;28;20490;-87
2022/03/18 06:54:35;;;;;;;13.70;9.13;;;;;;;-0.91;100.00;94789.53;4993009;28;20495;-93
2022/03/18 06:57:15;;;;;;;;;;;;;;;;;;;;;
2022/03/18 06:59:56;;;;;;;;;;;;;;;;;;;;;
2022/03/18 07:02:29;;;;;;;10.73;7.82;;;;;;;-0.65;99.39;94802.94;4993227;28;20065;-87
2022/03/18 07:04:56;;;;;;;13.38;8.40;;;;;;;-0.58;99.24;94786.50;4992789;28;20085;-87
2022/03/18 07:07:22;;;;;;;13.93;8.63;;;;;;;-0.41;97.00;94819.94;4992990;28;20046;-87
2022/03/18 07:09:59;;;;;;;;;;;;;;;;;;;;;
2022/03/18 07:12:27;;;;;;;13.15;8.25;;;;;;;-0.63;98.45;94803.69;4991482;28;20055;-85
2022/03/18 07:14:58;;;;;;;13.05;9.38;;;;;;;-0.28;98.79;94837.56;4992757;28;20050;-86
2022/03/18 07:20:22;;;;;;;;;;;;;;;;;;;;;
2022/03/18 07:22:59;;;;;;;13.88;9.55;;;;;;;-0.54;99.10;94823.25;4989368;28;20492;-88
2022/03/18 07:25:31;;;;;;;27.75;17.15;;;;;;;-0.62;98.76;94817.09;4992567;28;20042;-88
2022/03/18 07:27:59;;;;;;;25.05;17.15;;;;;;;-0.55;98.95;94820.84;4992697;28;20097;-86
2022/03/18 07:30:28;;;;;;;18.00;12.77;;;;;;;-0.42;98.05;94838.47;4992474;28;20043;-86
2022/03/18 07:32:55;;;;;;;13.88;9.18;;;;;;;-0.57;99.07;94841.13;4992437;28;20054;-87
2022/03/18 07:35:22;;;;;;;13.00;8.35;;;;;;;-0.16;98.48;94838.47;4992467;28;20042;-92
2022/03/18 07:38:33;;;;;;;14.35;9.45;;;;;;;-0.53;98.03;94781.16;4993102;28;20073;-92
2022/03/18 07:41:00;;;;;;;12.07;8.27;;;;;;;-0.79;97.48;94755.91;4993008;28;20468;-88
2022/03/18 07:43:27;;;;;;;13.50;9.30;;;;;;;-0.12;98.63;94841.59;4992987;28;20043;-87
2022/03/18 07:46:07;;;;;;;13.27;9.13;;;;;;;0.13;96.13;94845.81;4992255;28;20072;-91
2022/03/18 07:48:39;;;;;;;11.27;8.27;;;;;;;0.02;98.95;94840.66;4992242;28;20054;-87
2022/03/18 07:51:08;;;;;;;12.77;9.88;;;;;;;0.05;99.60;94843.78;4992358;28;20391;-86
2022/03/18 07:53:40;;;;;;;14.55;8.60;;;;;;;0.11;97.79;94848.44;4992821;28;20054;-89
2022/03/18 07:56:07;;;;;;;12.18;8.20;;;;;;;-0.18;100.00;94855.47;4992351;28;20081;-85
2022/03/18 07:58:34;;;;;;;13.15;8.13;;;;;;;-0.01;98.42;94851.78;4991981;28;20410;-88
2022/03/18 08:01:29;;;;;;;12.27;8.18;;;;;;;-0.13;96.21;94858.50;4992334;28;20073;-89
2022/03/18 08:03:59;;;;;;;11.65;7.70;;;;;;;0.07;98.50;94841.16;4993523;28;20108;-85
2022/03/18 08:06:43;;;;;;;13.10;9.35;;;;;;;-0.60;95.47;94724.44;4993141;28;20128;-88
2022/03/18 08:09:10;;;;;;;11.27;8.18;;;;;;;0.19;94.73;94852.16;4992110;28;20062;-89
2022/03/18 08:11:40;;;;;;;11.35;7.75;;;;;;;0.28;93.10;94860.84;4991266;28;20495;-89
2022/03/18 08:14:07;;;;;;;11.98;7.53;;;;;;;0.36;93.11;94853.53;4991313;28;20065;-86
2022/03/18 08:16:35;;;;;;;11.30;7.10;;;;;;;0.59;89.15;94856.16;4991310;28;20050;-86
2022/03/18 08:19:16;;;;;;;11.30;7.53;;;;;;;0.51;85.01;94822.13;4991571;28;20453;-89
2022/03/18 08:21:47;;;;;;;12.27;7.75;;;;;;;0.49;83.78;94861.88;4991833;28;20053;-83
2022/03/18 08:24:21;;;;;;;11.32;7.05;;;;;;;0.63;82.94;94843.22;4991599;28;20081;-86
2022/03/18 08:26:47;;;;;;;10.63;6.93;;;;;;;1.01;80.21;94861.66;4991209;28;20105;-86
2022/03/18 08:29:14;;;;;;;7.85;5.90;;;;;;;0.97;79.45;94869.59;4992110;28;20451;-87
2022/03/18 08:31:47;;;;;;;10.50;6.35;;;;;;;1.07;77.67;94860.44;4991873;28;20053;-91
2022/03/18 08:34:21;;;;;;;8.82;5.45;;;;;;;0.96;75.46;94875.56;4991600;28;20105;-86
2022/03/18 08:37:00;;;;;;;11.18;7.63;;;;;;;1.40;76.85;94858.09;4991510;28;20510;-86
2022/03/18 08:42:15;;;;;;;8.57;5.88;;;;;;;0.85;76.93;94868.72;4989895;28;20058;-86
2022/03/18 08:44:42;;;;;;;10.63;7.45;;;;;;;1.07;74.99;94870.56;4991860;28;20097;-88
2022/03/18 08:47:11;;;;;;;9.15;5.30;;;;;;;0.51;71.24;94867.63;4991545;28;20100;-81
2022/03/18 08:49:37;;;;;;;9.55;6.13;;;;;;;0.88;72.94;94864.25;4991145;28;20050;-86
2022/03/18 08:52:05;;;;;;;8.68;5.90;;;;;;;0.82;71.95;94864.69;4991494;28;20049;-90
2022/03/18 08:57:34;;;;;;;9.70;5.38;;;;;;;0.51;69.38;94819.59;4985268;28;20105;-87
2022/03/18 09:00:12;;;;;;;12.10;7.82;;;;;;;1.02;70.70;94809.34;4989082;28;20090;-90
2022/03/18 09:02:42;;;;;;;13.45;8.65;;;;;;;1.12;69.65;94834.78;4990468;28;20057;-86
2022/03/18 09:05:10;;;;;;;10.02;5.82;;;;;;;1.00;67.13;94875.22;4991627;28;20133;-86
2022/03/18 09:07:44;;;;;;;21.20;13.35;;;;;;;0.93;70.78;94864.72;4991257;28;20043;-85
2022/03/18 09:10:13;;;;;;;18.48;12.45;;;;;;;1.11;69.92;94861.00;4990746;28;20046;-87
2022/03/18 09:12:47;;;;;;;10.73;6.93;;;;;;;1.30;66.96;94868.88;4991098;28;20057;-86
2022/03/18 09:15:23;;;;;;;10.27;6.65;;;;;;;1.23;67.38;94870.25;4990468;28;20108;-85
2022/03/18 09:17:57;;;;;;;11.93;7.15;;;;;;;0.39;68.93;94730.28;4990998;28;20495;-90
2022/03/18 09:20:24;;;;;;;7.82;5.30;;;;;;;1.27;65.87;94868.28;4990281;28;20144;-86
2022/03/18 09:22:51;;;;;;;10.70;6.88;;;;;;;1.31;67.98;94859.56;4992911;28;20074;-87
2022/03/18 09:25:26;;;;;;;9.18;6.75;;;;;;;1.49;69.99;94867.56;4990819;28;20457;-87
2022/03/18 09:28:01;;;;;;;9.60;5.47;;;;;;;1.31;65.33;94872.22;4993985;28;20050;-88
2022/03/18 09:30:28;;;;;;;13.45;7.97;;;;;;;1.62;65.93;94859.84;4994295;28;20050;-86
2022/03/18 09:32:56;;;;;;;11.95;8.13;;;;;;;1.19;66.75;94862.06;4993949;28;20070;-88
2022/03/18 09:35:33;;;;;;;;;;;;;;;;;;;;;
2022/03/18 09:38:14;;;;;;;10.85;6.60;;;;;;;0.84;66.29;94826.63;4997695;28;20055;-90
2022/03/18 09:40:42;;;;;;;10.48;5.72;;;;;;;1.15;67.49;94858.13;4983145;28;20077;-86
2022/03/18 09:43:11;;;;;;;10.43;7.00;;;;;;;1.09;67.11;94871.22;4993368;28;20174;-84
2022/03/18 09:45:42;;;;;;;9.00;6.13;;;;;;;1.02;67.22;94858.22;4993924;28;20054;-91
2022/03/18 09:48:11;;;;;;;8.07;5.80;;;;;;;1.22;66.76;94865.28;4994352;28;20053;-89
2022/03/18 09:50:39;;;;;;;9.77;5.65;;;;;;;1.24;66.40;94850.81;4993089;28;20054;-85
2022/03/18 09:53:08;;;;;;;12.70;7.25;;;;;;;1.58;64.79;94863.53;4993142;28;20042;-87
2022/03/18 09:55:39;;;;;;;9.95;6.68;;;;;;;1.42;64.23;94873.97;4993590;28;20137;-91
2022/03/18 09:58:13;;;;;;;11.38;6.63;;;;;;;1.28;65.15;94880.03;4994136;28;20392;-92
2022/03/18 10:00:43;;;;;;;15.38;11.93;;;;;;;1.31;64.69;94852.75;4993746;28;20062;-89
2022/03/18 10:03:35;;;;;;;13.13;7.70;;;;;;;1.04;64.10;94878.34;4990432;28;20043;-84
2022/03/18 10:06:04;;;;;;;13.93;8.38;;;;;;;1.58;64.96;94886.34;4986813;28;20467;-88
2022/03/18 10:08:55;;;;;;;8.77;5.78;;;;;;;1.19;65.07;94819.03;4994249;28;20465;-85
2022/03/18 10:11:36;;;;;;;;;;;;;;;;;;;;;
2022/03/18 10:14:06;;;;;;;10.20;6.72;;;;;;;1.49;61.83;94869.28;4988753;28;20498;-87
2022/03/18 10:16:36;;;;;;;9.27;5.95;;;;;;;1.60;62.43;94870.09;4993866;28;20097;-87
2022/03/18 10:19:12;;;;;;;11.88;7.45;;;;;;;1.51;60.98;94878.38;4993712;28;20047;-88
2022/03/18 10:21:56;;;;;;;9.55;5.78;;;;;;;1.79;60.39;94890.72;4993549;28;20100;-85
2022/03/18 10:24:37;;;;;;;10.68;7.13;;;;;;;1.43;60.53;94863.72;4993824;28;20051;-87
2022/03/18 10:27:14;;;;;;;9.82;6.50;;;;;;;1.60;60.58;94887.00;4993433;28;20043;-90
2022/03/18 10:29:46;;;;;;;14.18;6.90;;;;;;;1.78;59.62;94879.78;4992969;28;20133;-92
2022/03/18 10:32:16;;;;;;;9.48;5.85;;;;;;;1.62;57.22;94866.66;4993772;28;20125;-93
2022/03/18 10:37:47;;;;;;;10.50;6.45;;;;;;;1.92;58.23;94842.47;4993328;28;20058;-88
2022/03/18 10:40:19;;;;;;;10.98;6.30;;;;;;;2.01;57.32;94811.38;4993019;28;20132;-93
2022/03/18 10:42:57;;;;;;;11.80;6.88;;;;;;;2.65;57.16;94844.56;4993617;28;20054;-86
2022/03/18 10:45:24;;;;;;;9.30;6.25;;;;;;;2.39;57.20;94849.91;4992929;28;20498;-87
2022/03/18 10:47:54;;;;;;;11.27;6.35;;;;;;;2.18;57.91;94815.13;4992793;28;20050;-85
2022/03/18 10:50:30;;;;;;;10.20;7.25;;;;;;;2.12;58.63;94857.00;4993032;28;20113;-88
2022/03/18 10:53:06;;;;;;;10.85;6.88;;;;;;;1.72;58.37;94868.38;4993274;28;20069;-86
2022/03/18 10:55:38;;;;;;;14.20;7.35;;;;;;;1.71;60.27;94846.50;4994069;28;20490;-89
2022/03/18 10:58:11;;;;;;;9.93;6.43;;;;;;;1.93;56.98;94864.34;4992795;28;20097;-90
2022/03/18 11:00:45;;;;;;;9.05;6.65;;;;;;;1.87;57.80;94808.13;4984421;28;20058;-88
2022/03/18 11:03:23;;;;;;;10.23;6.90;;;;;;;2.12;57.51;94857.00;4971800;28;20051;-89
2022/03/18 11:05:52;;;;;;;10.10;6.25;;;;;;;2.09;57.33;94847.06;4972941;28;20051;-89
2022/03/18 11:08:24;;;;;;;11.80;6.68;;;;;;;2.36;56.75;94853.50;4970473;28;20057;-85
2022/03/18 11:13:43;;;;;;;10.57;6.13;;;;;;;2.55;55.47;94857.16;4954075;29;20484;-86
2022/03/18 11:16:12;;;;;;;49.78;31.75;;;;;;;2.74;56.92;94837.97;4955197;28;20134;-88
2022/03/18 11:18:49;;;;;;;11.45;7.15;;;;;;;2.10;58.22;94847.88;4954402;29;20051;-89
2022/03/18 11:21:43;;;;;;;16.60;9.90;;;;;;;2.08;55.94;94797.28;4954254;29;20055;-84
2022/03/18 11:24:22;;;;;;;;;;;;;;;;;;;;;
2022/03/18 11:27:11;;;;;;;11.57;7.28;;;;;;;2.70;57.06;94839.13;4966637;28;20065;-87
2022/03/18 11:29:39;;;;;;;11.55;6.85;;;;;;;2.48;57.29;94820.50;4971659;28;20051;-87
2022/03/18 11:32:24;;;;;;;13.45;8.13;;;;;;;2.74;56.88;94827.81;4972659;28;20074;-87
2022/03/18 11:34:59;;;;;;;;;;;;;;;2.48;58.34;94831.47;4993430;28;20053;-88
2022/03/18 11:37:55;;;;;;;9.95;6.90;;;;;;;2.20;58.13;94825.16;4992512;28;19922;-85
2022/03/18 11:40:33;;;;;;;11.43;8.10;;;;;;;2.08;58.66;94799.84;4990462;28;20100;-88
2022/03/18 11:43:30;;;;;;;12.88;8.15;;;;;;;2.26;57.53;94812.84;4992589;28;20054;-91
2022/03/18 11:46:22;;;;;;;10.93;6.22;;;;;;;1.95;56.41;94807.56;4992004;28;20054;-87
2022/03/18 11:48:52;;;;;;;12.48;8.23;;;;;;;2.50;58.12;94822.00;4992586;28;20072;-88
2022/03/18 11:51:31;;;;;;;21.58;14.60;;;;;;;2.25;58.83;94825.63;4991856;28;20058;-85
2022/03/18 11:54:13;;;;;;;;;;;;;;;;;;;;;
2022/03/18 11:57:08;;;;;;;13.80;7.65;;;;;;;2.07;57.77;94822.75;4972592;28;20058;-89
2022/03/18 11:59:50;;;;;;;21.13;15.18;;;;;;;2.42;58.86;94819.25;4972057;28;20459;-91
2022/03/18 12:02:17;;;;;;;11.18;7.60;;;;;;;2.39;57.77;94812.69;4972479;28;20055;-87
2022/03/18 12:04:46;;;;;;;12.15;8.25;;;;;;;2.36;58.19;94819.75;4971578;28;20050;-86
2022/03/18 12:07:24;;;;;;;12.65;8.93;;;;;;;1.90;57.55;94827.38;4972183;28;20047;-89
2022/03/18 12:09:57;;;;;;;10.02;6.65;;;;;;;1.84;57.33;94818.53;4972066;28;20461;-87
2022/03/18 12:12:34;;;;;;;12.63;8.30;;;;;;;2.11;59.04;94806.41;4971948;28;20510;-89
2022/03/18 12:15:09;;;;;;;10.18;6.82;;;;;;;2.47;56.48;94785.91;4972175;28;20138;-86
2022/03/18 12:17:43;;;;;;;10.95;5.93;;;;;;;2.79;55.43;94805.41;4972007;28;20051;-85
2022/03/18 12:20:13;;;;;;;11.23;6.75;;;;;;;2.89;56.03;94802.94;4972103;28;20050;-87
2022/03/18 12:22:42;;;;;;;12.18;8.07;;;;;;;2.73;55.49;94806.69;4972241;28;20053;-86
2022/03/18 12:25:11;;;;;;;10.73;6.72;;;;;;;2.38;55.57;94795.88;4972410;28;20057;-87
2022/03/18 12:28:01;;;;;;;11.18;6.53;;;;;;;2.35;55.98;94792.75;4971929;28;20488;-90
2022/03/18 12:30:29;;;;;;;11.85;7.85;;;;;;;2.20;56.23;94798.09;4968303;28;20050;-83
2022/03/18 12:32:58;;;;;;;10.40;6.53;;;;;;;2.26;54.82;94822.97;4971875;28;20051;-87
2022/03/18 12:35:27;;;;;;;12.25;7.35;;;;;;;1.82;56.44;94800.09;4972052;28;20047;-85
2022/03/18 12:38:04;;;;;;;10.30;5.57;;;;;;;2.29;56.50;94809.25;4970456;28;20050;-85